sensor_id;sensor_type;location;lat;lon;timestamp;temperature;humidity
39315;DHT22;28703;44.412;11.918;2023-07-28T00:01:42;24.50;93.10
39315;DHT22;28703;44.412;11.918;2023-07-28T00:04:08;24.40;93.10
39315;DHT22;28703;44.412;11.918;2023-07-28T00:06:37;24.30;93.20
39315;DHT22;28703;44.412;11.918;2023-07-28T00:09:03;24.30;93.30
39315;DHT22;28703;44.412;11.918;2023-07-28T00:11:29;24.20;93.30
39315;DHT22;28703;44.412;11.918;2023-07-28T00:13:55;24.20;93.40
39315;DHT22;28703;44.412;11.918;2023-07-28T00:16:21;24.20;93.40
39315;DHT22;28703;44.412;11.918;2023-07-28T00:18:47;24.10;93.50
39315;DHT22;28703;44.412;11.918;2023-07-28T00:21:12;24.10;93.50
39315;DHT22;28703;44.412;11.918;2023-07-28T00:23:38;24.10;93.70
39315;DHT22;28703;44.412;11.918;2023-07-28T00:26:05;24.00;93.70
39315;DHT22;28703;44.412;11.918;2023-07-28T00:28:34;24.00;93.60
39315;DHT22;28703;44.412;11.918;2023-07-28T00:31:06;24.00;93.60
39315;DHT22;28703;44.412;11.918;2023-07-28T00:33:32;23.90;93.60
39315;DHT22;28703;44.412;11.918;2023-07-28T00:35:58;23.90;93.60
39315;DHT22;28703;44.412;11.918;2023-07-28T00:38:25;23.90;93.70
39315;DHT22;28703;44.412;11.918;2023-07-28T00:40:51;23.80;93.60
39315;DHT22;28703;44.412;11.918;2023-07-28T00:43:16;23.80;93.70
39315;DHT22;28703;44.412;11.918;2023-07-28T00:45:43;23.80;93.60
39315;DHT22;28703;44.412;11.918;2023-07-28T00:48:12;23.70;93.70
39315;DHT22;28703;44.412;11.918;2023-07-28T00:50:46;23.70;93.70
39315;DHT22;28703;44.412;11.918;2023-07-28T00:53:14;23.60;93.80
39315;DHT22;28703;44.412;11.918;2023-07-28T00:55:41;23.60;93.80
39315;DHT22;28703;44.412;11.918;2023-07-28T00:58:09;23.60;93.80
39315;DHT22;28703;44.412;11.918;2023-07-28T01:00:38;23.60;93.80
39315;DHT22;28703;44.412;11.918;2023-07-28T01:03:09;23.50;93.80
39315;DHT22;28703;44.412;11.918;2023-07-28T01:05:55;23.50;93.90
39315;DHT22;28703;44.412;11.918;2023-07-28T01:08:42;23.50;93.90
39315;DHT22;28703;44.412;11.918;2023-07-28T01:11:11;23.40;93.80
39315;DHT22;28703;44.412;11.918;2023-07-28T01:13:41;23.40;93.80
39315;DHT22;28703;44.412;11.918;2023-07-28T01:16:11;23.30;93.80
39315;DHT22;28703;44.412;11.918;2023-07-28T01:18:37;23.30;93.80
39315;DHT22;28703;44.412;11.918;2023-07-28T01:21:07;23.30;93.80
39315;DHT22;28703;44.412;11.918;2023-07-28T01:23:44;23.20;93.80
39315;DHT22;28703;44.412;11.918;2023-07-28T01:26:15;23.20;93.90
39315;DHT22;28703;44.412;11.918;2023-07-28T01:28:43;23.20;93.90
39315;DHT22;28703;44.412;11.918;2023-07-28T01:31:10;23.10;94.00
39315;DHT22;28703;44.412;11.918;2023-07-28T01:33:36;23.10;94.10
39315;DHT22;28703;44.412;11.918;2023-07-28T01:36:02;23.10;94.10
39315;DHT22;28703;44.412;11.918;2023-07-28T01:38:29;23.10;94.10
39315;DHT22;28703;44.412;11.918;2023-07-28T01:40:55;23.00;94.10
39315;DHT22;28703;44.412;11.918;2023-07-28T01:43:21;23.00;94.10
39315;DHT22;28703;44.412;11.918;2023-07-28T01:45:47;22.90;94.10
39315;DHT22;28703;44.412;11.918;2023-07-28T01:48:13;22.90;94.10
39315;DHT22;28703;44.412;11.918;2023-07-28T01:50:39;22.90;94.20
39315;DHT22;28703;44.412;11.918;2023-07-28T01:53:06;22.80;94.20
39315;DHT22;28703;44.412;11.918;2023-07-28T01:55:32;22.80;94.30
39315;DHT22;28703;44.412;11.918;2023-07-28T01:57:59;22.80;94.30
39315;DHT22;28703;44.412;11.918;2023-07-28T02:00:26;22.70;94.30
39315;DHT22;28703;44.412;11.918;2023-07-28T02:02:53;22.70;94.20
39315;DHT22;28703;44.412;11.918;2023-07-28T02:05:20;22.70;94.20
39315;DHT22;28703;44.412;11.918;2023-07-28T02:07:46;22.60;94.10
39315;DHT22;28703;44.412;11.918;2023-07-28T02:10:12;22.60;94.10
39315;DHT22;28703;44.412;11.918;2023-07-28T02:12:38;22.60;94.10
39315;DHT22;28703;44.412;11.918;2023-07-28T02:15:10;22.60;94.10
39315;DHT22;28703;44.412;11.918;2023-07-28T02:17:38;22.50;94.30
39315;DHT22;28703;44.412;11.918;2023-07-28T02:20:05;22.50;94.30
39315;DHT22;28703;44.412;11.918;2023-07-28T02:22:31;22.50;94.50
39315;DHT22;28703;44.412;11.918;2023-07-28T02:24:57;22.50;94.50
39315;DHT22;28703;44.412;11.918;2023-07-28T02:27:27;22.50;94.50
39315;DHT22;28703;44.412;11.918;2023-07-28T02:29:55;22.50;94.60
39315;DHT22;28703;44.412;11.918;2023-07-28T02:32:21;22.50;94.50
39315;DHT22;28703;44.412;11.918;2023-07-28T02:34:47;22.50;94.30
39315;DHT22;28703;44.412;11.918;2023-07-28T02:37:14;22.50;94.20
39315;DHT22;28703;44.412;11.918;2023-07-28T02:39:40;22.50;94.00
39315;DHT22;28703;44.412;11.918;2023-07-28T02:42:07;22.50;93.90
39315;DHT22;28703;44.412;11.918;2023-07-28T02:44:33;22.40;93.80
39315;DHT22;28703;44.412;11.918;2023-07-28T02:46:59;22.50;93.50
39315;DHT22;28703;44.412;11.918;2023-07-28T02:49:27;22.50;93.30
39315;DHT22;28703;44.412;11.918;2023-07-28T02:51:53;22.50;93.30
39315;DHT22;28703;44.412;11.918;2023-07-28T02:54:19;22.50;93.20
39315;DHT22;28703;44.412;11.918;2023-07-28T02:56:45;22.50;93.10
39315;DHT22;28703;44.412;11.918;2023-07-28T02:59:12;22.50;93.00
39315;DHT22;28703;44.412;11.918;2023-07-28T03:01:45;22.40;93.00
39315;DHT22;28703;44.412;11.918;2023-07-28T03:04:14;22.40;92.90
39315;DHT22;28703;44.412;11.918;2023-07-28T03:07:13;22.30;93.20
39315;DHT22;28703;44.412;11.918;2023-07-28T03:09:47;22.20;92.90
39315;DHT22;28703;44.412;11.918;2023-07-28T03:12:13;22.20;92.90
39315;DHT22;28703;44.412;11.918;2023-07-28T03:14:42;22.10;93.00
39315;DHT22;28703;44.412;11.918;2023-07-28T03:17:13;22.10;93.00
39315;DHT22;28703;44.412;11.918;2023-07-28T03:19:42;22.10;93.10
39315;DHT22;28703;44.412;11.918;2023-07-28T03:22:08;22.00;93.20
39315;DHT22;28703;44.412;11.918;2023-07-28T03:24:34;22.00;93.20
39315;DHT22;28703;44.412;11.918;2023-07-28T03:27:01;22.00;93.20
39315;DHT22;28703;44.412;11.918;2023-07-28T03:29:27;22.00;93.20
39315;DHT22;28703;44.412;11.918;2023-07-28T03:31:55;22.00;93.20
39315;DHT22;28703;44.412;11.918;2023-07-28T03:34:23;22.00;93.20
39315;DHT22;28703;44.412;11.918;2023-07-28T03:36:51;22.00;93.30
39315;DHT22;28703;44.412;11.918;2023-07-28T03:39:21;21.90;93.30
39315;DHT22;28703;44.412;11.918;2023-07-28T03:41:48;21.90;93.40
39315;DHT22;28703;44.412;11.918;2023-07-28T03:44:18;21.90;93.40
39315;DHT22;28703;44.412;11.918;2023-07-28T03:46:45;21.90;93.50
39315;DHT22;28703;44.412;11.918;2023-07-28T03:49:12;21.90;93.50
39315;DHT22;28703;44.412;11.918;2023-07-28T03:51:38;21.90;93.40
39315;DHT22;28703;44.412;11.918;2023-07-28T03:54:07;21.90;93.40
39315;DHT22;28703;44.412;11.918;2023-07-28T03:56:34;22.00;93.40
39315;DHT22;28703;44.412;11.918;2023-07-28T03:59:00;22.00;93.30
39315;DHT22;28703;44.412;11.918;2023-07-28T04:01:26;21.90;93.30
39315;DHT22;28703;44.412;11.918;2023-07-28T04:03:55;21.90;93.30
39315;DHT22;28703;44.412;11.918;2023-07-28T04:06:47;21.90;93.30
39315;DHT22;28703;44.412;11.918;2023-07-28T04:09:24;21.90;93.30
39315;DHT22;28703;44.412;11.918;2023-07-28T04:11:58;21.90;93.30
39315;DHT22;28703;44.412;11.918;2023-07-28T04:14:26;21.90;93.30
39315;DHT22;28703;44.412;11.918;2023-07-28T04:16:59;21.90;93.30
39315;DHT22;28703;44.412;11.918;2023-07-28T04:19:25;21.90;93.30
39315;DHT22;28703;44.412;11.918;2023-07-28T04:22:32;21.90;93.30
39315;DHT22;28703;44.412;11.918;2023-07-28T04:25:01;21.90;93.30
39315;DHT22;28703;44.412;11.918;2023-07-28T04:27:31;21.80;93.30
39315;DHT22;28703;44.412;11.918;2023-07-28T04:30:08;21.80;93.20
39315;DHT22;28703;44.412;11.918;2023-07-28T04:32:34;21.80;93.10
39315;DHT22;28703;44.412;11.918;2023-07-28T04:35:08;21.80;93.00
39315;DHT22;28703;44.412;11.918;2023-07-28T04:38:00;21.80;92.70
39315;DHT22;28703;44.412;11.918;2023-07-28T04:40:59;21.80;92.50
39315;DHT22;28703;44.412;11.918;2023-07-28T04:43:42;21.70;92.40
39315;DHT22;28703;44.412;11.918;2023-07-28T04:46:14;21.70;92.30
39315;DHT22;28703;44.412;11.918;2023-07-28T04:48:42;21.70;92.20
39315;DHT22;28703;44.412;11.918;2023-07-28T04:51:28;21.70;92.50
39315;DHT22;28703;44.412;11.918;2023-07-28T04:54:29;21.80;92.40
39315;DHT22;28703;44.412;11.918;2023-07-28T04:57:00;21.80;92.50
39315;DHT22;28703;44.412;11.918;2023-07-28T04:59:32;21.80;92.50
39315;DHT22;28703;44.412;11.918;2023-07-28T05:01:58;21.90;92.50
39315;DHT22;28703;44.412;11.918;2023-07-28T05:04:24;22.00;92.50
39315;DHT22;28703;44.412;11.918;2023-07-28T05:06:50;22.00;92.40
39315;DHT22;28703;44.412;11.918;2023-07-28T05:09:18;22.00;92.30
39315;DHT22;28703;44.412;11.918;2023-07-28T05:11:44;22.10;92.30
39315;DHT22;28703;44.412;11.918;2023-07-28T05:14:10;22.10;92.20
39315;DHT22;28703;44.412;11.918;2023-07-28T05:16:37;22.10;92.20
39315;DHT22;28703;44.412;11.918;2023-07-28T05:19:11;22.10;92.20
39315;DHT22;28703;44.412;11.918;2023-07-28T05:21:46;22.10;91.90
39315;DHT22;28703;44.412;11.918;2023-07-28T05:24:13;22.10;91.90
39315;DHT22;28703;44.412;11.918;2023-07-28T05:26:40;22.10;91.70
39315;DHT22;28703;44.412;11.918;2023-07-28T05:29:06;22.00;91.80
39315;DHT22;28703;44.412;11.918;2023-07-28T05:31:32;22.00;91.80
39315;DHT22;28703;44.412;11.918;2023-07-28T05:34:01;22.00;91.80
39315;DHT22;28703;44.412;11.918;2023-07-28T05:36:26;22.00;91.70
39315;DHT22;28703;44.412;11.918;2023-07-28T05:38:58;22.00;91.50
39315;DHT22;28703;44.412;11.918;2023-07-28T05:41:34;22.00;91.50
39315;DHT22;28703;44.412;11.918;2023-07-28T05:44:02;22.10;91.50
39315;DHT22;28703;44.412;11.918;2023-07-28T05:46:28;22.10;91.60
39315;DHT22;28703;44.412;11.918;2023-07-28T05:48:58;22.10;91.70
39315;DHT22;28703;44.412;11.918;2023-07-28T05:51:23;22.00;91.50
39315;DHT22;28703;44.412;11.918;2023-07-28T05:53:50;22.10;91.60
39315;DHT22;28703;44.412;11.918;2023-07-28T05:56:18;22.10;91.60
39315;DHT22;28703;44.412;11.918;2023-07-28T05:58:45;22.10;91.60
39315;DHT22;28703;44.412;11.918;2023-07-28T06:01:11;22.20;91.60
39315;DHT22;28703;44.412;11.918;2023-07-28T06:04:07;22.20;91.50
39315;DHT22;28703;44.412;11.918;2023-07-28T06:06:40;22.20;91.80
39315;DHT22;28703;44.412;11.918;2023-07-28T06:09:08;22.30;91.40
39315;DHT22;28703;44.412;11.918;2023-07-28T06:11:38;22.30;91.00
39315;DHT22;28703;44.412;11.918;2023-07-28T06:14:04;22.40;91.00
39315;DHT22;28703;44.412;11.918;2023-07-28T06:16:33;22.40;90.60
39315;DHT22;28703;44.412;11.918;2023-07-28T06:18:59;22.50;90.60
39315;DHT22;28703;44.412;11.918;2023-07-28T06:21:25;22.60;90.60
39315;DHT22;28703;44.412;11.918;2023-07-28T06:23:51;22.70;90.60
39315;DHT22;28703;44.412;11.918;2023-07-28T06:26:17;22.80;90.50
39315;DHT22;28703;44.412;11.918;2023-07-28T06:28:42;22.80;90.20
39315;DHT22;28703;44.412;11.918;2023-07-28T06:31:09;22.90;90.20
39315;DHT22;28703;44.412;11.918;2023-07-28T06:33:39;23.00;90.00
39315;DHT22;28703;44.412;11.918;2023-07-28T06:36:06;23.00;89.60
39315;DHT22;28703;44.412;11.918;2023-07-28T06:38:37;23.00;89.70
39315;DHT22;28703;44.412;11.918;2023-07-28T06:41:03;23.10;90.00
39315;DHT22;28703;44.412;11.918;2023-07-28T06:43:33;23.10;90.00
39315;DHT22;28703;44.412;11.918;2023-07-28T06:46:01;23.20;89.60
39315;DHT22;28703;44.412;11.918;2023-07-28T06:48:27;23.30;89.70
39315;DHT22;28703;44.412;11.918;2023-07-28T06:50:53;23.30;89.50
39315;DHT22;28703;44.412;11.918;2023-07-28T06:53:21;23.40;89.20
39315;DHT22;28703;44.412;11.918;2023-07-28T06:55:50;23.50;88.90
39315;DHT22;28703;44.412;11.918;2023-07-28T06:58:16;23.60;88.50
39315;DHT22;28703;44.412;11.918;2023-07-28T07:00:42;23.70;88.00
39315;DHT22;28703;44.412;11.918;2023-07-28T07:03:09;23.70;88.40
39315;DHT22;28703;44.412;11.918;2023-07-28T07:05:45;23.80;88.00
39315;DHT22;28703;44.412;11.918;2023-07-28T07:08:11;23.90;88.60
39315;DHT22;28703;44.412;11.918;2023-07-28T07:10:40;23.90;88.40
39315;DHT22;28703;44.412;11.918;2023-07-28T07:13:15;23.90;88.20
39315;DHT22;28703;44.412;11.918;2023-07-28T07:15:44;24.00;88.30
39315;DHT22;28703;44.412;11.918;2023-07-28T07:18:17;24.00;88.00
39315;DHT22;28703;44.412;11.918;2023-07-28T07:20:44;24.00;87.90
39315;DHT22;28703;44.412;11.918;2023-07-28T07:23:13;24.00;87.90
39315;DHT22;28703;44.412;11.918;2023-07-28T07:25:41;24.10;88.20
39315;DHT22;28703;44.412;11.918;2023-07-28T07:28:08;24.10;87.70
39315;DHT22;28703;44.412;11.918;2023-07-28T07:30:42;24.20;87.30
39315;DHT22;28703;44.412;11.918;2023-07-28T07:33:11;24.20;87.30
39315;DHT22;28703;44.412;11.918;2023-07-28T07:35:40;24.20;87.30
39315;DHT22;28703;44.412;11.918;2023-07-28T07:38:06;24.20;87.10
39315;DHT22;28703;44.412;11.918;2023-07-28T07:40:39;24.20;87.40
39315;DHT22;28703;44.412;11.918;2023-07-28T07:43:07;24.30;87.60
39315;DHT22;28703;44.412;11.918;2023-07-28T07:45:33;24.30;87.50
39315;DHT22;28703;44.412;11.918;2023-07-28T07:47:59;24.30;87.30
39315;DHT22;28703;44.412;11.918;2023-07-28T07:50:25;24.30;87.80
39315;DHT22;28703;44.412;11.918;2023-07-28T07:52:51;24.30;88.10
39315;DHT22;28703;44.412;11.918;2023-07-28T07:55:17;24.40;88.30
39315;DHT22;28703;44.412;11.918;2023-07-28T07:57:43;24.40;89.10
39315;DHT22;28703;44.412;11.918;2023-07-28T08:00:09;24.50;88.50
39315;DHT22;28703;44.412;11.918;2023-07-28T08:02:39;24.50;88.50
39315;DHT22;28703;44.412;11.918;2023-07-28T08:05:05;24.50;88.80
39315;DHT22;28703;44.412;11.918;2023-07-28T08:07:31;24.60;88.80
39315;DHT22;28703;44.412;11.918;2023-07-28T08:09:57;24.50;88.90
39315;DHT22;28703;44.412;11.918;2023-07-28T08:12:23;24.60;89.00
39315;DHT22;28703;44.412;11.918;2023-07-28T08:14:48;24.70;89.00
39315;DHT22;28703;44.412;11.918;2023-07-28T08:17:14;24.70;88.60
39315;DHT22;28703;44.412;11.918;2023-07-28T08:19:40;24.80;88.60
39315;DHT22;28703;44.412;11.918;2023-07-28T08:22:07;24.90;88.60
39315;DHT22;28703;44.412;11.918;2023-07-28T08:24:33;24.90;88.00
39315;DHT22;28703;44.412;11.918;2023-07-28T08:26:59;24.90;88.10
39315;DHT22;28703;44.412;11.918;2023-07-28T08:29:25;25.00;88.40
39315;DHT22;28703;44.412;11.918;2023-07-28T08:31:51;25.00;88.30
39315;DHT22;28703;44.412;11.918;2023-07-28T08:34:17;25.10;88.40
39315;DHT22;28703;44.412;11.918;2023-07-28T08:36:43;25.20;88.30
39315;DHT22;28703;44.412;11.918;2023-07-28T08:39:09;25.20;88.00
39315;DHT22;28703;44.412;11.918;2023-07-28T08:41:35;25.20;88.20
39315;DHT22;28703;44.412;11.918;2023-07-28T08:44:02;25.30;88.30
39315;DHT22;28703;44.412;11.918;2023-07-28T08:46:28;25.30;88.20
39315;DHT22;28703;44.412;11.918;2023-07-28T08:48:54;25.30;88.10
39315;DHT22;28703;44.412;11.918;2023-07-28T08:51:23;25.40;88.20
39315;DHT22;28703;44.412;11.918;2023-07-28T08:53:49;25.50;88.30
39315;DHT22;28703;44.412;11.918;2023-07-28T08:56:15;25.50;88.20
39315;DHT22;28703;44.412;11.918;2023-07-28T08:58:41;25.50;88.20
39315;DHT22;28703;44.412;11.918;2023-07-28T09:01:07;25.50;88.00
39315;DHT22;28703;44.412;11.918;2023-07-28T09:03:33;25.50;88.10
39315;DHT22;28703;44.412;11.918;2023-07-28T09:06:07;25.50;88.20
39315;DHT22;28703;44.412;11.918;2023-07-28T09:08:36;25.60;88.40
39315;DHT22;28703;44.412;11.918;2023-07-28T09:11:04;25.60;88.40
39315;DHT22;28703;44.412;11.918;2023-07-28T09:13:38;25.60;88.60
39315;DHT22;28703;44.412;11.918;2023-07-28T09:16:05;25.70;88.70
39315;DHT22;28703;44.412;11.918;2023-07-28T09:18:31;25.80;88.70
39315;DHT22;28703;44.412;11.918;2023-07-28T09:20:57;25.80;88.00
39315;DHT22;28703;44.412;11.918;2023-07-28T09:23:29;25.70;88.30
39315;DHT22;28703;44.412;11.918;2023-07-28T09:25:59;25.80;88.40
39315;DHT22;28703;44.412;11.918;2023-07-28T09:28:40;25.70;88.70
39315;DHT22;28703;44.412;11.918;2023-07-28T09:31:07;25.70;88.40
39315;DHT22;28703;44.412;11.918;2023-07-28T09:33:35;25.70;88.60
39315;DHT22;28703;44.412;11.918;2023-07-28T09:36:27;25.80;88.80
39315;DHT22;28703;44.412;11.918;2023-07-28T09:38:53;25.80;88.40
39315;DHT22;28703;44.412;11.918;2023-07-28T09:41:21;25.90;88.90
39315;DHT22;28703;44.412;11.918;2023-07-28T09:43:48;25.90;89.10
39315;DHT22;28703;44.412;11.918;2023-07-28T09:46:17;26.00;88.50
39315;DHT22;28703;44.412;11.918;2023-07-28T09:48:45;26.00;88.40
39315;DHT22;28703;44.412;11.918;2023-07-28T09:51:17;26.00;88.10
39315;DHT22;28703;44.412;11.918;2023-07-28T09:53:48;26.00;88.00
39315;DHT22;28703;44.412;11.918;2023-07-28T09:56:15;25.90;88.30
39315;DHT22;28703;44.412;11.918;2023-07-28T09:58:51;26.00;88.50
39315;DHT22;28703;44.412;11.918;2023-07-28T10:01:19;26.00;88.10
39315;DHT22;28703;44.412;11.918;2023-07-28T10:03:47;25.90;88.00
39315;DHT22;28703;44.412;11.918;2023-07-28T10:06:13;26.00;87.90
39315;DHT22;28703;44.412;11.918;2023-07-28T10:08:40;26.00;87.90
39315;DHT22;28703;44.412;11.918;2023-07-28T10:11:06;26.00;88.00
39315;DHT22;28703;44.412;11.918;2023-07-28T10:13:43;26.00;88.10
39315;DHT22;28703;44.412;11.918;2023-07-28T10:16:10;26.00;88.20
39315;DHT22;28703;44.412;11.918;2023-07-28T10:18:36;26.00;88.20
39315;DHT22;28703;44.412;11.918;2023-07-28T10:21:10;26.00;88.30
39315;DHT22;28703;44.412;11.918;2023-07-28T10:23:40;26.10;88.60
39315;DHT22;28703;44.412;11.918;2023-07-28T10:26:07;26.10;88.40
39315;DHT22;28703;44.412;11.918;2023-07-28T10:28:39;26.20;88.60
39315;DHT22;28703;44.412;11.918;2023-07-28T10:31:11;26.20;88.80
39315;DHT22;28703;44.412;11.918;2023-07-28T10:33:43;26.30;88.80
39315;DHT22;28703;44.412;11.918;2023-07-28T10:36:15;26.40;89.00
39315;DHT22;28703;44.412;11.918;2023-07-28T10:38:41;26.40;88.30
39315;DHT22;28703;44.412;11.918;2023-07-28T10:41:16;26.50;88.60
39315;DHT22;28703;44.412;11.918;2023-07-28T10:43:43;26.60;88.70
39315;DHT22;28703;44.412;11.918;2023-07-28T10:46:13;26.70;88.70
39315;DHT22;28703;44.412;11.918;2023-07-28T10:48:44;26.80;87.30
39315;DHT22;28703;44.412;11.918;2023-07-28T10:51:44;26.90;86.50
39315;DHT22;28703;44.412;11.918;2023-07-28T10:54:03;27.00;86.20
39315;DHT22;28703;44.412;11.918;2023-07-28T10:56:29;27.10;85.20
39315;DHT22;28703;44.412;11.918;2023-07-28T10:59:03;27.20;84.90
39315;DHT22;28703;44.412;11.918;2023-07-28T11:01:37;27.30;84.90
39315;DHT22;28703;44.412;11.918;2023-07-28T11:04:14;27.40;84.50
39315;DHT22;28703;44.412;11.918;2023-07-28T11:06:43;27.50;83.40
39315;DHT22;28703;44.412;11.918;2023-07-28T11:09:10;27.60;82.50
39315;DHT22;28703;44.412;11.918;2023-07-28T11:11:40;27.70;82.00
39315;DHT22;28703;44.412;11.918;2023-07-28T11:14:07;27.80;81.70
39315;DHT22;28703;44.412;11.918;2023-07-28T11:16:40;27.80;80.70
39315;DHT22;28703;44.412;11.918;2023-07-28T11:19:12;27.90;80.00
39315;DHT22;28703;44.412;11.918;2023-07-28T11:21:42;28.00;79.90
39315;DHT22;28703;44.412;11.918;2023-07-28T11:24:17;28.00;79.70
39315;DHT22;28703;44.412;11.918;2023-07-28T11:26:43;28.10;79.60
39315;DHT22;28703;44.412;11.918;2023-07-28T11:29:12;28.20;78.70
39315;DHT22;28703;44.412;11.918;2023-07-28T11:31:38;28.20;78.70
39315;DHT22;28703;44.412;11.918;2023-07-28T11:34:16;28.30;78.20
39315;DHT22;28703;44.412;11.918;2023-07-28T11:36:42;28.40;78.40
39315;DHT22;28703;44.412;11.918;2023-07-28T11:39:09;28.40;78.40
39315;DHT22;28703;44.412;11.918;2023-07-28T11:41:36;28.50;78.00
39315;DHT22;28703;44.412;11.918;2023-07-28T11:44:03;28.60;78.00
39315;DHT22;28703;44.412;11.918;2023-07-28T11:46:39;28.70;74.20
39315;DHT22;28703;44.412;11.918;2023-07-28T11:49:16;28.70;73.40
39315;DHT22;28703;44.412;11.918;2023-07-28T11:51:46;28.70;72.30
39315;DHT22;28703;44.412;11.918;2023-07-28T11:54:13;28.70;72.00
39315;DHT22;28703;44.412;11.918;2023-07-28T11:56:43;28.70;71.90
39315;DHT22;28703;44.412;11.918;2023-07-28T11:59:10;28.70;71.30
39315;DHT22;28703;44.412;11.918;2023-07-28T12:02:00;28.70;71.80
39315;DHT22;28703;44.412;11.918;2023-07-28T12:04:37;28.70;72.10
39315;DHT22;28703;44.412;11.918;2023-07-28T12:07:11;28.70;73.20
39315;DHT22;28703;44.412;11.918;2023-07-28T12:12:19;28.90;73.60
39315;DHT22;28703;44.412;11.918;2023-07-28T12:14:45;29.00;74.00
39315;DHT22;28703;44.412;11.918;2023-07-28T12:17:13;29.00;73.40
39315;DHT22;28703;44.412;11.918;2023-07-28T12:19:54;29.10;73.90
39315;DHT22;28703;44.412;11.918;2023-07-28T12:22:20;29.20;73.80
39315;DHT22;28703;44.412;11.918;2023-07-28T12:24:46;29.30;74.20
39315;DHT22;28703;44.412;11.918;2023-07-28T12:27:12;29.30;73.60
39315;DHT22;28703;44.412;11.918;2023-07-28T12:29:39;29.40;74.40
39315;DHT22;28703;44.412;11.918;2023-07-28T12:32:05;29.50;74.70
39315;DHT22;28703;44.412;11.918;2023-07-28T12:34:32;29.60;74.80
39315;DHT22;28703;44.412;11.918;2023-07-28T12:36:59;29.70;74.40
39315;DHT22;28703;44.412;11.918;2023-07-28T12:39:24;29.80;74.10
39315;DHT22;28703;44.412;11.918;2023-07-28T12:41:50;29.90;74.20
39315;DHT22;28703;44.412;11.918;2023-07-28T12:44:19;30.00;74.20
39315;DHT22;28703;44.412;11.918;2023-07-28T12:46:45;30.00;73.80
39315;DHT22;28703;44.412;11.918;2023-07-28T12:49:11;30.10;73.50
39315;DHT22;28703;44.412;11.918;2023-07-28T12:51:37;30.10;73.40
39315;DHT22;28703;44.412;11.918;2023-07-28T12:54:03;30.30;73.70
39315;DHT22;28703;44.412;11.918;2023-07-28T12:56:30;30.40;73.90
39315;DHT22;28703;44.412;11.918;2023-07-28T12:58:56;30.50;73.60
39315;DHT22;28703;44.412;11.918;2023-07-28T13:01:22;30.60;73.20
39315;DHT22;28703;44.412;11.918;2023-07-28T13:03:48;30.70;73.10
39315;DHT22;28703;44.412;11.918;2023-07-28T13:06:13;30.70;72.30
39315;DHT22;28703;44.412;11.918;2023-07-28T13:08:40;30.80;72.60
39315;DHT22;28703;44.412;11.918;2023-07-28T13:11:06;30.80;72.30
39315;DHT22;28703;44.412;11.918;2023-07-28T13:13:32;30.90;72.60
39315;DHT22;28703;44.412;11.918;2023-07-28T13:15:59;30.90;72.50
39315;DHT22;28703;44.412;11.918;2023-07-28T13:18:25;31.00;72.60
39315;DHT22;28703;44.412;11.918;2023-07-28T13:20:51;31.00;72.80
39315;DHT22;28703;44.412;11.918;2023-07-28T13:23:17;31.20;72.80
39315;DHT22;28703;44.412;11.918;2023-07-28T13:25:43;31.30;72.70
39315;DHT22;28703;44.412;11.918;2023-07-28T13:28:09;31.50;72.80
39315;DHT22;28703;44.412;11.918;2023-07-28T13:30:34;31.50;71.80
39315;DHT22;28703;44.412;11.918;2023-07-28T13:33:00;31.40;71.20
39315;DHT22;28703;44.412;11.918;2023-07-28T13:35:28;31.40;71.60
39315;DHT22;28703;44.412;11.918;2023-07-28T13:37:54;31.60;71.90
39315;DHT22;28703;44.412;11.918;2023-07-28T13:40:20;31.70;72.30
39315;DHT22;28703;44.412;11.918;2023-07-28T13:42:46;31.80;72.30
39315;DHT22;28703;44.412;11.918;2023-07-28T13:45:13;31.80;71.40
39315;DHT22;28703;44.412;11.918;2023-07-28T13:47:39;31.90;71.00
39315;DHT22;28703;44.412;11.918;2023-07-28T13:50:06;32.00;70.50
39315;DHT22;28703;44.412;11.918;2023-07-28T13:52:32;31.90;70.50
39315;DHT22;28703;44.412;11.918;2023-07-28T13:54:58;31.90;70.50
39315;DHT22;28703;44.412;11.918;2023-07-28T13:57:24;32.10;71.20
39315;DHT22;28703;44.412;11.918;2023-07-28T13:59:50;32.10;70.60
39315;DHT22;28703;44.412;11.918;2023-07-28T14:02:19;32.20;71.10
39315;DHT22;28703;44.412;11.918;2023-07-28T14:04:45;32.40;71.60
39315;DHT22;28703;44.412;11.918;2023-07-28T14:07:11;32.40;70.60
39315;DHT22;28703;44.412;11.918;2023-07-28T14:09:36;32.50;70.10
39315;DHT22;28703;44.412;11.918;2023-07-28T14:12:04;32.60;70.60
39315;DHT22;28703;44.412;11.918;2023-07-28T14:14:31;32.60;70.30
39315;DHT22;28703;44.412;11.918;2023-07-28T14:16:57;32.80;69.70
39315;DHT22;28703;44.412;11.918;2023-07-28T14:19:23;32.80;70.30
39315;DHT22;28703;44.412;11.918;2023-07-28T14:21:49;32.80;70.50
39315;DHT22;28703;44.412;11.918;2023-07-28T14:24:15;32.90;70.50
39315;DHT22;28703;44.412;11.918;2023-07-28T14:26:40;32.90;70.30
39315;DHT22;28703;44.412;11.918;2023-07-28T14:29:06;33.10;70.80
39315;DHT22;28703;44.412;11.918;2023-07-28T14:31:32;33.10;70.60
39315;DHT22;28703;44.412;11.918;2023-07-28T14:33:58;33.20;70.50
39315;DHT22;28703;44.412;11.918;2023-07-28T14:36:25;33.30;70.40
39315;DHT22;28703;44.412;11.918;2023-07-28T14:38:50;33.50;70.30
39315;DHT22;28703;44.412;11.918;2023-07-28T14:41:16;33.50;69.70
39315;DHT22;28703;44.412;11.918;2023-07-28T14:43:42;33.60;70.10
39315;DHT22;28703;44.412;11.918;2023-07-28T14:46:08;33.60;70.30
39315;DHT22;28703;44.412;11.918;2023-07-28T14:48:34;33.50;70.20
39315;DHT22;28703;44.412;11.918;2023-07-28T14:51:00;33.50;70.30
39315;DHT22;28703;44.412;11.918;2023-07-28T14:53:29;33.40;70.70
39315;DHT22;28703;44.412;11.918;2023-07-28T14:55:56;33.30;71.20
39315;DHT22;28703;44.412;11.918;2023-07-28T14:58:22;33.30;71.40
39315;DHT22;28703;44.412;11.918;2023-07-28T15:00:47;33.20;71.40
39315;DHT22;28703;44.412;11.918;2023-07-28T15:03:13;33.20;71.60
39315;DHT22;28703;44.412;11.918;2023-07-28T15:05:39;33.30;71.70
39315;DHT22;28703;44.412;11.918;2023-07-28T15:08:05;33.40;71.90
39315;DHT22;28703;44.412;11.918;2023-07-28T15:10:31;33.50;71.80
39315;DHT22;28703;44.412;11.918;2023-07-28T15:12:57;33.50;71.90
39315;DHT22;28703;44.412;11.918;2023-07-28T15:15:24;33.60;71.80
39315;DHT22;28703;44.412;11.918;2023-07-28T15:17:50;33.60;71.70
39315;DHT22;28703;44.412;11.918;2023-07-28T15:20:16;33.70;71.70
39315;DHT22;28703;44.412;11.918;2023-07-28T15:22:46;33.80;71.00
39315;DHT22;28703;44.412;11.918;2023-07-28T15:25:15;33.90;70.80
39315;DHT22;28703;44.412;11.918;2023-07-28T15:27:41;34.00;71.00